SWR983 EDDB-LSZH
Flight info
| Callsign | SWR983 |
|---|---|
| Flight time | 1h 5m |
| Altitude | 30000 |
| Route | KISUC1N KISUC Z20 MAG Z92 ABGUS DCT LUXUX/N0444F310 DCT SWALM/N0441F300 DCT OMOGI/N0444F310 T721 RILAX |
| Aircraft | A321/M-SDE3FGHIRWY/LB1 |
Departure
| Time | 2026-05-07 20:47 |
|---|---|
| Airport | Berlin Brandenburg Airport (EDDB) |
Arrival
| Time | 2026-05-07 21:52 |
|---|---|
| Airport | Zürich Airport (LSZH) |
| Time | Latitude | Longitude | Altitude | Speed | Heading |
|---|---|---|---|---|---|
| 2026-05-07 20:14 | 52.36173 | 13.50722 | 155 ft | 0 kts | 69° |
| 2026-05-07 20:33 | 52.36172 | 13.50720 | 154 ft | 1 kts | 69° |
| 2026-05-07 20:34 | 52.36163 | 13.50683 | 130 ft | 4 kts | 69° |
| 2026-05-07 20:34 | 52.36154 | 13.50641 | 154 ft | 4 kts | 69° |
| 2026-05-07 20:34 | 52.36147 | 13.50610 | 153 ft | 4 kts | 94° |
| 2026-05-07 20:34 | 52.36156 | 13.50583 | 153 ft | 4 kts | 158° |
| 2026-05-07 20:35 | 52.36178 | 13.50568 | 153 ft | 2 kts | 159° |
| 2026-05-07 20:35 | 52.36180 | 13.50568 | 153 ft | 0 kts | 159° |
| 2026-05-07 20:37 | 52.36168 | 13.50575 | 153 ft | 4 kts | 159° |
| 2026-05-07 20:38 | 52.36133 | 13.50598 | 153 ft | 7 kts | 159° |
| 2026-05-07 20:38 | 52.36073 | 13.50635 | 153 ft | 11 kts | 158° |
| 2026-05-07 20:38 | 52.36008 | 13.50666 | 152 ft | 8 kts | 180° |
| 2026-05-07 20:38 | 52.35961 | 13.50657 | 151 ft | 6 kts | 188° |
| 2026-05-07 20:39 | 52.35933 | 13.50650 | 151 ft | 4 kts | 187° |
| 2026-05-07 20:39 | 52.35896 | 13.50644 | 150 ft | 5 kts | 185° |
| 2026-05-07 20:39 | 52.35865 | 13.50639 | 150 ft | 6 kts | 185° |
| 2026-05-07 20:39 | 52.35829 | 13.50637 | 149 ft | 3 kts | 179° |
| 2026-05-07 20:40 | 52.35797 | 13.50627 | 148 ft | 7 kts | 201° |
| 2026-05-07 20:40 | 52.35760 | 13.50556 | 148 ft | 9 kts | 244° |
| 2026-05-07 20:40 | 52.35736 | 13.50466 | 148 ft | 8 kts | 248° |
| 2026-05-07 20:40 | 52.35710 | 13.50354 | 148 ft | 15 kts | 249° |
| 2026-05-07 20:41 | 52.35705 | 13.50337 | 148 ft | 15 kts | 248° |
| 2026-05-07 20:41 | 52.35676 | 13.50214 | 148 ft | 14 kts | 249° |
| 2026-05-07 20:41 | 52.35637 | 13.50041 | 148 ft | 17 kts | 249° |
| 2026-05-07 20:41 | 52.35594 | 13.49862 | 148 ft | 16 kts | 248° |
| 2026-05-07 20:42 | 52.35553 | 13.49695 | 148 ft | 15 kts | 248° |
| 2026-05-07 20:42 | 52.35517 | 13.49543 | 148 ft | 12 kts | 248° |
| 2026-05-07 20:42 | 52.35464 | 13.49474 | 147 ft | 10 kts | 179° |
| 2026-05-07 20:42 | 52.35396 | 13.49423 | 148 ft | 12 kts | 235° |
| 2026-05-07 20:43 | 52.35359 | 13.49282 | 148 ft | 16 kts | 248° |
| 2026-05-07 20:43 | 52.35303 | 13.49050 | 148 ft | 28 kts | 249° |
| 2026-05-07 20:43 | 52.35224 | 13.48716 | 149 ft | 33 kts | 249° |
| 2026-05-07 20:43 | 52.35144 | 13.48376 | 149 ft | 31 kts | 249° |
| 2026-05-07 20:44 | 52.35067 | 13.48051 | 150 ft | 30 kts | 248° |
| 2026-05-07 20:44 | 52.34992 | 13.47741 | 150 ft | 29 kts | 249° |
| 2026-05-07 20:44 | 52.34921 | 13.47444 | 151 ft | 27 kts | 248° |
| 2026-05-07 20:44 | 52.34854 | 13.47162 | 151 ft | 26 kts | 250° |
| 2026-05-07 20:45 | 52.34794 | 13.46904 | 152 ft | 17 kts | 248° |
| 2026-05-07 20:45 | 52.34748 | 13.46771 | 153 ft | 10 kts | 212° |
| 2026-05-07 20:45 | 52.34698 | 13.46777 | 155 ft | 6 kts | 156° |
| 2026-05-07 20:45 | 52.34651 | 13.46808 | 157 ft | 9 kts | 158° |
| 2026-05-07 20:46 | 52.34581 | 13.46863 | 159 ft | 11 kts | 138° |
| 2026-05-07 20:46 | 52.34571 | 13.46963 | 160 ft | 8 kts | 68° |
| 2026-05-07 20:46 | 52.34600 | 13.47094 | 159 ft | 26 kts | 70° |
| 2026-05-07 20:46 | 52.34760 | 13.47759 | 158 ft | 96 kts | 68° |
| 2026-05-07 20:47 | 52.35071 | 13.49066 | 158 ft | 148 kts | 69° |
| 2026-05-07 20:47 | 52.35491 | 13.50844 | 248 ft | 179 kts | 68° |
| 2026-05-07 20:47 | 52.35846 | 13.52734 | 923 ft | 177 kts | 89° |
| 2026-05-07 20:47 | 52.35342 | 13.54580 | 1442 ft | 187 kts | 131° |
| 2026-05-07 20:48 | 52.34274 | 13.55877 | 1816 ft | 199 kts | 158° |
| 2026-05-07 20:48 | 52.32884 | 13.55915 | 2268 ft | 206 kts | 193° |
| 2026-05-07 20:48 | 52.31579 | 13.54737 | 2469 ft | 227 kts | 215° |
| 2026-05-07 20:48 | 52.30254 | 13.53078 | 2660 ft | 253 kts | 218° |
| 2026-05-07 20:49 | 52.28841 | 13.51225 | 3297 ft | 264 kts | 218° |
| 2026-05-07 20:49 | 52.27436 | 13.49270 | 4101 ft | 268 kts | 227° |
| 2026-05-07 20:49 | 52.26489 | 13.46645 | 4879 ft | 272 kts | 254° |
| 2026-05-07 20:49 | 52.26276 | 13.43577 | 5645 ft | 274 kts | 271° |
| 2026-05-07 20:50 | 52.26286 | 13.40446 | 6427 ft | 278 kts | 271° |
| 2026-05-07 20:50 | 52.26294 | 13.37275 | 7162 ft | 281 kts | 271° |
| 2026-05-07 20:50 | 52.26300 | 13.34075 | 7890 ft | 283 kts | 270° |
| 2026-05-07 20:50 | 52.26301 | 13.30847 | 8622 ft | 286 kts | 270° |
| 2026-05-07 20:51 | 52.26298 | 13.27590 | 9360 ft | 288 kts | 270° |
| 2026-05-07 20:51 | 52.26244 | 13.24304 | 10081 ft | 291 kts | 263° |
| 2026-05-07 20:51 | 52.25756 | 13.21046 | 10725 ft | 294 kts | 248° |
| 2026-05-07 20:51 | 52.24811 | 13.18107 | 11274 ft | 302 kts | 239° |
| 2026-05-07 20:52 | 52.23664 | 13.15031 | 11424 ft | 324 kts | 239° |
| 2026-05-07 20:52 | 52.22467 | 13.11829 | 11540 ft | 345 kts | 239° |
| 2026-05-07 20:52 | 52.21190 | 13.08418 | 11856 ft | 358 kts | 239° |
| 2026-05-07 20:52 | 52.19863 | 13.04884 | 12440 ft | 363 kts | 239° |
| 2026-05-07 20:53 | 52.18542 | 13.01361 | 13071 ft | 366 kts | 239° |
| 2026-05-07 20:53 | 52.17238 | 12.97840 | 13717 ft | 369 kts | 241° |
| 2026-05-07 20:53 | 52.16209 | 12.93997 | 14284 ft | 372 kts | 253° |
| 2026-05-07 20:53 | 52.15577 | 12.89837 | 14848 ft | 375 kts | 258° |
| 2026-05-07 20:54 | 52.15003 | 12.85687 | 15436 ft | 377 kts | 258° |
| 2026-05-07 20:54 | 52.14421 | 12.81511 | 15996 ft | 380 kts | 258° |
| 2026-05-07 20:54 | 52.13828 | 12.77308 | 16553 ft | 382 kts | 258° |
| 2026-05-07 20:54 | 52.13225 | 12.73075 | 17109 ft | 385 kts | 258° |
| 2026-05-07 20:55 | 52.12617 | 12.68819 | 17664 ft | 387 kts | 258° |
| 2026-05-07 20:55 | 52.12004 | 12.64538 | 18210 ft | 390 kts | 258° |
| 2026-05-07 20:55 | 52.11387 | 12.60229 | 18698 ft | 392 kts | 258° |
| 2026-05-07 20:55 | 52.10765 | 12.55900 | 19155 ft | 394 kts | 258° |
| 2026-05-07 20:56 | 52.10138 | 12.51543 | 19613 ft | 397 kts | 258° |
| 2026-05-07 20:56 | 52.09505 | 12.47162 | 20073 ft | 399 kts | 258° |
| 2026-05-07 20:56 | 52.08868 | 12.42756 | 20527 ft | 401 kts | 258° |
| 2026-05-07 20:56 | 52.08226 | 12.38322 | 20973 ft | 404 kts | 258° |
| 2026-05-07 20:57 | 52.07579 | 12.33869 | 21419 ft | 406 kts | 257° |
| 2026-05-07 20:57 | 52.06926 | 12.29390 | 21866 ft | 409 kts | 257° |
| 2026-05-07 20:57 | 52.06268 | 12.24891 | 22303 ft | 411 kts | 257° |
| 2026-05-07 20:57 | 52.05604 | 12.20361 | 22744 ft | 413 kts | 257° |
| 2026-05-07 20:58 | 52.04933 | 12.15804 | 23176 ft | 416 kts | 257° |
| 2026-05-07 20:58 | 52.04255 | 12.11224 | 23599 ft | 418 kts | 257° |
| 2026-05-07 20:58 | 52.03571 | 12.06620 | 23961 ft | 421 kts | 257° |
| 2026-05-07 20:58 | 52.02881 | 12.01989 | 24327 ft | 423 kts | 257° |
| 2026-05-07 20:59 | 52.02189 | 11.97342 | 24680 ft | 425 kts | 257° |
| 2026-05-07 20:59 | 52.01489 | 11.92673 | 25030 ft | 426 kts | 257° |
| 2026-05-07 20:59 | 52.00786 | 11.87996 | 25392 ft | 428 kts | 257° |
| 2026-05-07 20:59 | 52.00077 | 11.83293 | 25752 ft | 430 kts | 257° |
| 2026-05-07 21:00 | 51.99363 | 11.78573 | 26103 ft | 431 kts | 256° |
| 2026-05-07 21:00 | 51.98614 | 11.73849 | 26458 ft | 433 kts | 256° |
| 2026-05-07 21:00 | 51.97823 | 11.69126 | 26806 ft | 435 kts | 255° |
| 2026-05-07 21:00 | 51.97004 | 11.64401 | 27150 ft | 436 kts | 255° |
| 2026-05-07 21:01 | 51.96170 | 11.59659 | 27493 ft | 438 kts | 255° |
| 2026-05-07 21:01 | 51.95334 | 11.54903 | 27804 ft | 440 kts | 255° |
| 2026-05-07 21:01 | 51.94499 | 11.50130 | 28121 ft | 441 kts | 255° |
| 2026-05-07 21:01 | 51.93665 | 11.45336 | 28439 ft | 443 kts | 255° |
| 2026-05-07 21:02 | 51.92830 | 11.40519 | 28760 ft | 445 kts | 255° |
| 2026-05-07 21:02 | 51.91996 | 11.35683 | 29067 ft | 447 kts | 255° |
| 2026-05-07 21:02 | 51.91171 | 11.30904 | 29341 ft | 449 kts | 255° |
| 2026-05-07 21:02 | 51.90314 | 11.25960 | 29752 ft | 448 kts | 255° |
| 2026-05-07 21:03 | 51.89470 | 11.21111 | 30165 ft | 447 kts | 255° |
| 2026-05-07 21:03 | 51.88625 | 11.16273 | 30500 ft | 447 kts | 255° |
| 2026-05-07 21:03 | 51.87775 | 11.11437 | 30825 ft | 446 kts | 255° |
| 2026-05-07 21:03 | 51.86923 | 11.06611 | 31142 ft | 446 kts | 255° |
| 2026-05-07 21:04 | 51.86073 | 11.01788 | 31466 ft | 446 kts | 255° |
| 2026-05-07 21:04 | 51.85222 | 10.96961 | 31786 ft | 446 kts | 255° |
| 2026-05-07 21:04 | 51.84370 | 10.92140 | 32114 ft | 445 kts | 254° |
| 2026-05-07 21:04 | 51.83369 | 10.87414 | 32430 ft | 445 kts | 244° |
| 2026-05-07 21:05 | 51.81696 | 10.83208 | 32739 ft | 446 kts | 229° |
| 2026-05-07 21:05 | 51.79502 | 10.79662 | 33042 ft | 446 kts | 224° |
| 2026-05-07 21:05 | 51.77254 | 10.76215 | 33350 ft | 446 kts | 224° |
| 2026-05-07 21:05 | 51.74992 | 10.72779 | 33689 ft | 446 kts | 224° |
| 2026-05-07 21:06 | 51.72730 | 10.69361 | 34006 ft | 445 kts | 224° |
| 2026-05-07 21:06 | 51.70472 | 10.65952 | 34282 ft | 445 kts | 224° |
| 2026-05-07 21:06 | 51.68214 | 10.62540 | 34528 ft | 444 kts | 224° |
| 2026-05-07 21:06 | 51.66726 | 10.60291 | 34690 ft | 444 kts | 224° |
| 2026-05-07 21:07 | 51.64477 | 10.56889 | 34937 ft | 444 kts | 224° |
| 2026-05-07 21:07 | 51.62223 | 10.53482 | 35086 ft | 444 kts | 224° |
| 2026-05-07 21:07 | 51.59977 | 10.50089 | 35134 ft | 442 kts | 224° |
| 2026-05-07 21:08 | 51.55500 | 10.43337 | 35133 ft | 441 kts | 224° |
| 2026-05-07 21:08 | 51.51028 | 10.36606 | 35133 ft | 440 kts | 224° |
| 2026-05-07 21:09 | 51.46550 | 10.29908 | 35130 ft | 440 kts | 224° |
| 2026-05-07 21:09 | 51.42070 | 10.23232 | 35126 ft | 440 kts | 224° |
| 2026-05-07 21:10 | 51.37590 | 10.16558 | 35127 ft | 440 kts | 224° |
| 2026-05-07 21:10 | 51.33104 | 10.09895 | 35122 ft | 440 kts | 224° |
| 2026-05-07 21:11 | 51.28614 | 10.03255 | 35118 ft | 440 kts | 224° |
| 2026-05-07 21:11 | 51.21874 | 9.93312 | 35118 ft | 439 kts | 224° |
| 2026-05-07 21:12 | 51.17386 | 9.86704 | 35114 ft | 439 kts | 224° |
| 2026-05-07 21:12 | 51.12892 | 9.80114 | 35111 ft | 439 kts | 224° |
| 2026-05-07 21:13 | 51.08397 | 9.73540 | 35111 ft | 439 kts | 224° |
| 2026-05-07 21:13 | 51.03897 | 9.66970 | 35110 ft | 439 kts | 224° |
| 2026-05-07 21:14 | 50.99394 | 9.60422 | 35108 ft | 439 kts | 224° |
| 2026-05-07 21:14 | 50.94887 | 9.53897 | 35107 ft | 439 kts | 224° |
| 2026-05-07 21:15 | 50.90381 | 9.47379 | 35109 ft | 438 kts | 224° |
| 2026-05-07 21:15 | 50.85886 | 9.40874 | 35108 ft | 438 kts | 224° |
| 2026-05-07 21:16 | 50.81342 | 9.34345 | 35108 ft | 438 kts | 224° |
| 2026-05-07 21:16 | 50.76836 | 9.27888 | 35105 ft | 437 kts | 224° |
| 2026-05-07 21:17 | 50.71931 | 9.22209 | 35105 ft | 440 kts | 208° |
| 2026-05-07 21:17 | 50.66116 | 9.19382 | 35104 ft | 444 kts | 189° |
| 2026-05-07 21:18 | 50.59934 | 9.18146 | 35100 ft | 445 kts | 189° |
| 2026-05-07 21:18 | 50.53795 | 9.16854 | 35094 ft | 445 kts | 189° |
| 2026-05-07 21:19 | 50.47655 | 9.15565 | 35095 ft | 445 kts | 189° |
| 2026-05-07 21:19 | 50.41514 | 9.14292 | 35095 ft | 445 kts | 189° |
| 2026-05-07 21:20 | 50.35372 | 9.13030 | 35094 ft | 445 kts | 189° |
| 2026-05-07 21:20 | 50.29222 | 9.11780 | 35101 ft | 445 kts | 189° |
| 2026-05-07 21:21 | 50.23077 | 9.10530 | 35100 ft | 445 kts | 189° |
| 2026-05-07 21:21 | 50.16931 | 9.09276 | 35095 ft | 445 kts | 190° |
| 2026-05-07 21:22 | 50.10788 | 9.08021 | 35096 ft | 445 kts | 190° |
| 2026-05-07 21:22 | 50.04651 | 9.06777 | 35096 ft | 445 kts | 190° |
| 2026-05-07 21:23 | 49.98526 | 9.05540 | 35093 ft | 444 kts | 190° |
| 2026-05-07 21:23 | 49.92396 | 9.04296 | 35092 ft | 444 kts | 190° |
| 2026-05-07 21:24 | 49.86272 | 9.03058 | 35084 ft | 444 kts | 190° |
| 2026-05-07 21:24 | 49.80151 | 9.01829 | 35087 ft | 444 kts | 190° |
| 2026-05-07 21:25 | 49.74022 | 9.00604 | 35087 ft | 444 kts | 190° |
| 2026-05-07 21:25 | 49.67901 | 8.99379 | 35088 ft | 443 kts | 190° |
| 2026-05-07 21:26 | 49.61801 | 8.98046 | 35091 ft | 442 kts | 192° |
| 2026-05-07 21:26 | 49.55762 | 8.96346 | 35093 ft | 441 kts | 194° |
| 2026-05-07 21:27 | 49.49737 | 8.94561 | 35093 ft | 441 kts | 193° |
| 2026-05-07 21:27 | 49.43701 | 8.92866 | 35096 ft | 441 kts | 193° |
| 2026-05-07 21:28 | 49.37660 | 8.91242 | 35093 ft | 440 kts | 193° |
| 2026-05-07 21:28 | 49.31632 | 8.89613 | 35087 ft | 440 kts | 193° |
| 2026-05-07 21:29 | 49.25609 | 8.87971 | 35087 ft | 439 kts | 193° |
| 2026-05-07 21:29 | 49.19582 | 8.86335 | 34291 ft | 445 kts | 193° |
| 2026-05-07 21:30 | 49.16502 | 8.85492 | 33202 ft | 453 kts | 193° |
| 2026-05-07 21:30 | 49.13380 | 8.84638 | 32206 ft | 458 kts | 192° |
| 2026-05-07 21:30 | 49.10228 | 8.83786 | 31258 ft | 462 kts | 192° |
| 2026-05-07 21:30 | 49.07844 | 8.83143 | 30627 ft | 463 kts | 192° |
| 2026-05-07 21:31 | 49.05316 | 8.82522 | 30256 ft | 457 kts | 192° |
| 2026-05-07 21:32 | 49.02188 | 8.81707 | 29538 ft | 454 kts | 192° |
| 2026-05-07 21:32 | 48.99098 | 8.80857 | 28987 ft | 449 kts | 193° |
| 2026-05-07 21:32 | 48.96044 | 8.79999 | 28404 ft | 444 kts | 193° |
| 2026-05-07 21:32 | 48.93024 | 8.79150 | 27846 ft | 439 kts | 192° |
| 2026-05-07 21:33 | 48.90039 | 8.78316 | 27292 ft | 434 kts | 192° |
| 2026-05-07 21:33 | 48.87083 | 8.77505 | 26751 ft | 430 kts | 192° |
| 2026-05-07 21:33 | 48.84153 | 8.76713 | 26214 ft | 425 kts | 192° |
| 2026-05-07 21:33 | 48.81256 | 8.75936 | 25684 ft | 421 kts | 192° |
| 2026-05-07 21:34 | 48.78378 | 8.75169 | 25167 ft | 418 kts | 192° |
| 2026-05-07 21:34 | 48.75528 | 8.74413 | 24650 ft | 414 kts | 192° |
| 2026-05-07 21:34 | 48.72704 | 8.73665 | 24159 ft | 410 kts | 192° |
| 2026-05-07 21:34 | 48.69903 | 8.72921 | 23668 ft | 406 kts | 192° |
| 2026-05-07 21:35 | 48.67135 | 8.72183 | 23162 ft | 401 kts | 192° |
| 2026-05-07 21:35 | 48.64413 | 8.71456 | 22712 ft | 394 kts | 192° |
| 2026-05-07 21:35 | 48.61736 | 8.70741 | 22294 ft | 387 kts | 192° |
| 2026-05-07 21:35 | 48.59106 | 8.70039 | 21874 ft | 381 kts | 192° |
| 2026-05-07 21:36 | 48.56515 | 8.69349 | 21472 ft | 375 kts | 192° |
| 2026-05-07 21:36 | 48.53968 | 8.68671 | 21078 ft | 369 kts | 192° |
| 2026-05-07 21:36 | 48.51451 | 8.68003 | 20683 ft | 364 kts | 192° |
| 2026-05-07 21:36 | 48.48972 | 8.67346 | 20290 ft | 360 kts | 192° |
| 2026-05-07 21:37 | 48.46522 | 8.66697 | 19889 ft | 356 kts | 192° |
| 2026-05-07 21:37 | 48.44093 | 8.66053 | 19491 ft | 352 kts | 192° |
| 2026-05-07 21:37 | 48.41689 | 8.65415 | 19094 ft | 349 kts | 192° |
| 2026-05-07 21:37 | 48.39308 | 8.64785 | 18703 ft | 346 kts | 192° |
| 2026-05-07 21:38 | 48.36945 | 8.64153 | 18287 ft | 344 kts | 193° |
| 2026-05-07 21:38 | 48.34607 | 8.63475 | 17861 ft | 340 kts | 193° |
| 2026-05-07 21:38 | 48.32294 | 8.62771 | 17463 ft | 338 kts | 194° |
| 2026-05-07 21:38 | 48.30001 | 8.62062 | 17067 ft | 336 kts | 194° |
| 2026-05-07 21:39 | 48.27716 | 8.61357 | 16673 ft | 334 kts | 193° |
| 2026-05-07 21:39 | 48.25447 | 8.60660 | 16279 ft | 332 kts | 193° |
| 2026-05-07 21:39 | 48.23183 | 8.59970 | 15888 ft | 331 kts | 193° |
| 2026-05-07 21:39 | 48.20933 | 8.59288 | 15501 ft | 329 kts | 193° |
| 2026-05-07 21:40 | 48.18696 | 8.58618 | 15104 ft | 327 kts | 193° |
| 2026-05-07 21:40 | 48.16468 | 8.57953 | 14733 ft | 325 kts | 193° |
| 2026-05-07 21:40 | 48.14255 | 8.57288 | 14347 ft | 324 kts | 193° |
| 2026-05-07 21:40 | 48.12052 | 8.56631 | 13962 ft | 322 kts | 193° |
| 2026-05-07 21:41 | 48.09857 | 8.55979 | 13537 ft | 320 kts | 193° |
| 2026-05-07 21:41 | 48.07680 | 8.55337 | 13144 ft | 318 kts | 193° |
| 2026-05-07 21:41 | 48.05523 | 8.54701 | 12760 ft | 315 kts | 193° |
| 2026-05-07 21:41 | 48.03378 | 8.54065 | 12375 ft | 313 kts | 194° |
| 2026-05-07 21:42 | 48.01249 | 8.53431 | 11985 ft | 311 kts | 194° |
| 2026-05-07 21:42 | 47.99137 | 8.52801 | 11592 ft | 309 kts | 194° |
| 2026-05-07 21:42 | 47.97037 | 8.52176 | 11197 ft | 307 kts | 194° |
| 2026-05-07 21:42 | 47.94921 | 8.51548 | 10804 ft | 305 kts | 194° |
| 2026-05-07 21:43 | 47.92856 | 8.50935 | 10571 ft | 298 kts | 194° |
| 2026-05-07 21:43 | 47.90865 | 8.50335 | 10421 ft | 288 kts | 194° |
| 2026-05-07 21:43 | 47.90323 | 8.50171 | 10345 ft | 286 kts | 194° |
| 2026-05-07 21:43 | 47.89803 | 8.50012 | 10278 ft | 285 kts | 194° |
| 2026-05-07 21:44 | 47.87245 | 8.49233 | 10014 ft | 279 kts | 194° |
| 2026-05-07 21:44 | 47.85984 | 8.48849 | 9934 ft | 279 kts | 194° |
| 2026-05-07 21:44 | 47.84080 | 8.48267 | 9791 ft | 279 kts | 194° |
| 2026-05-07 21:44 | 47.82168 | 8.47685 | 9425 ft | 281 kts | 194° |
| 2026-05-07 21:45 | 47.80249 | 8.47103 | 8970 ft | 282 kts | 194° |
| 2026-05-07 21:45 | 47.78337 | 8.46525 | 8533 ft | 282 kts | 193° |
| 2026-05-07 21:45 | 47.76429 | 8.45952 | 8225 ft | 277 kts | 193° |
| 2026-05-07 21:45 | 47.74552 | 8.45389 | 7665 ft | 275 kts | 193° |
| 2026-05-07 21:46 | 47.72674 | 8.44825 | 7075 ft | 275 kts | 192° |
| 2026-05-07 21:46 | 47.70830 | 8.44259 | 6528 ft | 273 kts | 195° |
| 2026-05-07 21:46 | 47.69073 | 8.43220 | 6035 ft | 272 kts | 210° |
| 2026-05-07 21:46 | 47.67586 | 8.41538 | 5554 ft | 267 kts | 226° |
| 2026-05-07 21:47 | 47.66392 | 8.39598 | 5478 ft | 246 kts | 227° |
| 2026-05-07 21:47 | 47.65240 | 8.37858 | 5418 ft | 228 kts | 217° |
| 2026-05-07 21:47 | 47.63908 | 8.36770 | 5293 ft | 211 kts | 198° |
| 2026-05-07 21:47 | 47.62504 | 8.36405 | 5016 ft | 200 kts | 179° |
| 2026-05-07 21:48 | 47.61179 | 8.36690 | 4812 ft | 188 kts | 161° |
| 2026-05-07 21:48 | 47.60032 | 8.37499 | 4599 ft | 180 kts | 144° |
| 2026-05-07 21:48 | 47.59088 | 8.38692 | 4369 ft | 177 kts | 135° |
| 2026-05-07 21:48 | 47.58187 | 8.39930 | 4138 ft | 176 kts | 135° |
| 2026-05-07 21:49 | 47.57291 | 8.41161 | 3902 ft | 175 kts | 135° |
| 2026-05-07 21:49 | 47.56400 | 8.42385 | 3670 ft | 174 kts | 134° |
| 2026-05-07 21:49 | 47.55513 | 8.43602 | 3446 ft | 173 kts | 134° |
| 2026-05-07 21:49 | 47.54633 | 8.44810 | 3217 ft | 172 kts | 134° |
| 2026-05-07 21:50 | 47.54002 | 8.45676 | 3017 ft | 170 kts | 134° |
| 2026-05-07 21:50 | 47.53178 | 8.46802 | 2807 ft | 155 kts | 134° |
| 2026-05-07 21:50 | 47.52406 | 8.47863 | 2537 ft | 149 kts | 135° |
| 2026-05-07 21:50 | 47.51640 | 8.48905 | 2335 ft | 151 kts | 135° |
| 2026-05-07 21:51 | 47.50868 | 8.49966 | 2175 ft | 152 kts | 136° |
| 2026-05-07 21:51 | 47.50086 | 8.51037 | 1985 ft | 154 kts | 136° |
| 2026-05-07 21:51 | 47.49296 | 8.52117 | 1745 ft | 155 kts | 136° |
| 2026-05-07 21:51 | 47.48500 | 8.53209 | 1519 ft | 157 kts | 138° |
| 2026-05-07 21:52 | 47.47708 | 8.54282 | 1405 ft | 145 kts | 137° |
| 2026-05-07 21:52 | 47.47130 | 8.55080 | 1406 ft | 85 kts | 137° |
| 2026-05-07 21:52 | 47.46799 | 8.55534 | 1409 ft | 43 kts | 139° |
| 2026-05-07 21:52 | 47.46560 | 8.55690 | 1403 ft | 31 kts | 166° |
| 2026-05-07 21:53 | 47.46393 | 8.55754 | 1398 ft | 20 kts | 153° |
| 2026-05-07 21:53 | 47.46295 | 8.55881 | 1402 ft | 18 kts | 136° |
| 2026-05-07 21:53 | 47.46208 | 8.55990 | 1401 ft | 13 kts | 154° |
| 2026-05-07 21:53 | 47.46122 | 8.55995 | 1397 ft | 12 kts | 185° |
| 2026-05-07 21:54 | 47.46042 | 8.55981 | 1397 ft | 11 kts | 186° |
| 2026-05-07 21:54 | 47.45943 | 8.55955 | 1403 ft | 19 kts | 198° |
| 2026-05-07 21:54 | 47.45840 | 8.55900 | 1400 ft | 13 kts | 199° |
| 2026-05-07 21:54 | 47.45762 | 8.55875 | 1405 ft | 12 kts | 186° |
| 2026-05-07 21:55 | 47.45642 | 8.55858 | 1398 ft | 21 kts | 185° |
| 2026-05-07 21:55 | 47.45535 | 8.55835 | 1397 ft | 12 kts | 203° |
| 2026-05-07 21:55 | 47.45512 | 8.55736 | 1400 ft | 10 kts | 275° |
| 2026-05-07 21:55 | 47.45518 | 8.55635 | 1408 ft | 10 kts | 276° |
| 2026-05-07 21:56 | 47.45526 | 8.55507 | 1399 ft | 13 kts | 275° |
| 2026-05-07 21:56 | 47.45481 | 8.55444 | 1402 ft | 10 kts | 173° |
| 2026-05-07 21:56 | 47.45400 | 8.55492 | 1406 ft | 15 kts | 155° |
| 2026-05-07 21:56 | 47.45301 | 8.55563 | 1408 ft | 15 kts | 152° |
| 2026-05-07 21:57 | 47.45270 | 8.55657 | 1399 ft | 7 kts | 97° |
| 2026-05-07 21:57 | 47.45297 | 8.55693 | 1399 ft | 6 kts | 15° |
| 2026-05-07 21:57 | 47.45330 | 8.55699 | 1397 ft | 3 kts | 7° |
| 2026-05-07 21:57 | 47.45341 | 8.55701 | 1397 ft | 2 kts | 6° |
| 2026-05-07 21:58 | 47.45345 | 8.55702 | 1397 ft | 0 kts | 6° |